createdAt,value
2023-05-25T00:00:13.462Z,7.80
2023-05-25T00:01:13.650Z,7.80
2023-05-25T00:02:13.845Z,8.00
2023-05-25T00:03:14.001Z,9.00
2023-05-25T00:04:14.251Z,8.10
2023-05-25T00:05:14.303Z,9.00
2023-05-25T00:06:14.476Z,9.30
2023-05-25T00:07:14.615Z,9.10
2023-05-25T00:08:14.792Z,9.00
2023-05-25T00:09:14.999Z,8.10
2023-05-25T00:10:15.168Z,9.20
2023-05-25T00:11:15.330Z,8.90
2023-05-25T00:12:15.494Z,9.40
2023-05-25T00:13:15.680Z,9.60
2023-05-25T00:14:15.850Z,8.30
2023-05-25T00:15:16.052Z,8.60
2023-05-25T00:16:16.262Z,10.20
2023-05-25T00:17:16.430Z,8.60
2023-05-25T00:18:16.602Z,7.90
2023-05-25T00:19:16.753Z,9.00
2023-05-25T00:20:17.059Z,8.30
2023-05-25T00:21:17.074Z,9.30
2023-05-25T00:22:17.246Z,9.20
2023-05-25T00:23:17.433Z,9.20
2023-05-25T00:24:17.622Z,9.00
2023-05-25T00:25:17.791Z,9.30
2023-05-25T00:26:17.985Z,10.50
2023-05-25T00:27:18.152Z,9.20
2023-05-25T00:28:18.368Z,9.90
2023-05-25T00:29:18.515Z,8.70
2023-05-25T00:30:18.692Z,7.90
2023-05-25T00:31:18.967Z,9.80
2023-05-25T00:32:19.054Z,9.00
2023-05-25T00:33:19.220Z,8.70
2023-05-25T00:34:19.401Z,7.40
2023-05-25T00:35:19.551Z,9.90
2023-05-25T00:36:19.754Z,9.10
2023-05-25T00:37:19.882Z,8.40
2023-05-25T00:38:20.052Z,9.00
2023-05-25T00:39:20.222Z,9.10
2023-05-25T00:40:20.416Z,9.80
2023-05-25T00:41:20.555Z,8.80
2023-05-25T00:42:20.742Z,9.10
2023-05-25T00:43:20.911Z,8.00
2023-05-25T00:44:21.116Z,8.80
2023-05-25T00:45:21.269Z,9.00
2023-05-25T00:46:21.487Z,8.80
2023-05-25T00:47:21.636Z,7.90
2023-05-25T00:48:21.825Z,10.20
2023-05-25T00:49:21.995Z,9.80
2023-05-25T00:50:22.131Z,8.90
2023-05-25T00:51:22.318Z,8.20
2023-05-25T00:52:22.485Z,8.20
2023-05-25T00:53:22.671Z,9.00
2023-05-25T00:54:22.864Z,8.40
2023-05-25T00:55:23.005Z,8.90
2023-05-25T00:56:23.230Z,10.30
2023-05-25T00:57:23.391Z,9.50
2023-05-25T00:58:23.541Z,8.00
2023-05-25T00:59:23.725Z,8.70
2023-05-25T01:00:23.934Z,8.30
2023-05-25T01:01:24.184Z,7.50
2023-05-25T01:02:24.279Z,8.30
2023-05-25T01:03:24.520Z,8.80
2023-05-25T01:04:24.647Z,9.40
2023-05-25T01:05:24.791Z,6.80
2023-05-25T01:06:24.936Z,8.50
2023-05-25T01:07:25.106Z,7.60
2023-05-25T01:08:25.278Z,7.80
2023-05-25T01:09:25.479Z,9.00
2023-05-25T01:10:25.654Z,7.90
2023-05-25T01:11:25.824Z,7.10
2023-05-25T01:12:25.996Z,8.60
2023-05-25T01:13:26.195Z,8.60
2023-05-25T01:14:26.356Z,8.90
2023-05-25T01:15:26.498Z,9.00
2023-05-25T01:16:26.733Z,8.30
2023-05-25T01:17:26.866Z,8.20
2023-05-25T01:18:27.024Z,8.20
2023-05-25T01:19:27.209Z,8.40
2023-05-25T01:20:27.391Z,8.30
2023-05-25T01:21:27.561Z,8.40
2023-05-25T01:22:27.744Z,8.10
2023-05-25T01:23:27.968Z,8.70
2023-05-25T01:24:28.090Z,8.70
2023-05-25T01:25:28.282Z,7.20
2023-05-25T01:26:28.461Z,8.00
2023-05-25T01:27:28.653Z,10.10
2023-05-25T01:28:28.813Z,9.00
2023-05-25T01:29:28.979Z,8.30
2023-05-25T01:30:29.156Z,7.80
2023-05-25T01:31:29.395Z,7.90
2023-05-25T01:32:29.551Z,10.00
2023-05-25T01:33:29.648Z,7.60
2023-05-25T01:34:29.837Z,8.40
2023-05-25T01:35:30.011Z,8.70
2023-05-25T01:36:30.226Z,8.70
2023-05-25T01:37:30.366Z,9.40
2023-05-25T01:38:30.538Z,8.50
2023-05-25T01:39:30.746Z,7.80
2023-05-25T01:40:30.885Z,8.40
2023-05-25T01:41:31.067Z,9.20
2023-05-25T01:42:31.276Z,8.20
2023-05-25T01:43:31.402Z,8.20
2023-05-25T01:44:31.578Z,8.80
2023-05-25T01:45:31.761Z,8.20
2023-05-25T01:46:32.110Z,8.80
2023-05-25T01:47:32.189Z,8.70
2023-05-25T01:48:32.277Z,7.40
2023-05-25T01:49:32.454Z,8.60
2023-05-25T01:50:32.617Z,7.60
2023-05-25T01:51:32.805Z,8.20
2023-05-25T01:52:33.012Z,10.00
2023-05-25T01:53:33.112Z,8.50
2023-05-25T01:54:33.288Z,8.80
2023-05-25T01:55:33.474Z,9.00
2023-05-25T01:56:33.681Z,7.90
2023-05-25T01:57:33.836Z,8.70
2023-05-25T01:58:34.034Z,9.00
2023-05-25T01:59:34.173Z,8.50
2023-05-25T02:00:34.369Z,8.90
2023-05-25T02:01:34.600Z,9.00
2023-05-25T02:02:34.732Z,8.00
2023-05-25T02:03:34.874Z,8.70
2023-05-25T02:04:35.104Z,9.30
2023-05-25T02:05:35.234Z,8.40
2023-05-25T02:06:35.378Z,7.80
2023-05-25T02:07:35.568Z,9.20
2023-05-25T02:08:35.770Z,8.60
2023-05-25T02:09:35.947Z,8.50
2023-05-25T02:10:36.100Z,7.90
2023-05-25T02:11:36.254Z,8.20
2023-05-25T02:12:36.423Z,8.50
2023-05-25T02:13:36.625Z,8.80
2023-05-25T02:14:36.780Z,7.90
2023-05-25T02:15:36.994Z,9.20
2023-05-25T02:16:37.175Z,9.10
2023-05-25T02:17:37.455Z,8.60
2023-05-25T02:18:37.468Z,8.20
2023-05-25T02:19:37.640Z,9.10
2023-05-25T02:20:37.919Z,8.10
2023-05-25T02:21:37.962Z,8.70
2023-05-25T02:22:38.193Z,7.90
2023-05-25T02:23:38.328Z,8.30
2023-05-25T02:24:38.471Z,8.30
2023-05-25T02:25:38.639Z,8.10
2023-05-25T02:26:38.827Z,9.30
2023-05-25T02:27:39.015Z,8.30
2023-05-25T02:28:39.193Z,7.70
2023-05-25T02:29:39.374Z,7.50
2023-05-25T02:30:39.543Z,7.60
2023-05-25T02:31:39.877Z,8.20
2023-05-25T02:32:39.926Z,7.60
2023-05-25T02:33:40.054Z,8.90
2023-05-25T02:34:40.229Z,8.50
2023-05-25T02:35:40.418Z,8.20
2023-05-25T02:36:40.606Z,7.70
2023-05-25T02:37:40.801Z,8.60
2023-05-25T02:38:40.953Z,8.50
2023-05-25T02:39:41.138Z,8.80
2023-05-25T02:40:41.345Z,8.50
2023-05-25T02:41:41.483Z,8.30
2023-05-25T02:42:41.646Z,8.00
2023-05-25T02:43:41.821Z,7.80
2023-05-25T02:44:42.014Z,7.70
2023-05-25T02:45:42.321Z,6.70
2023-05-25T02:46:42.350Z,8.90
2023-05-25T02:47:42.560Z,7.90
2023-05-25T02:48:42.661Z,8.00
2023-05-25T02:49:42.860Z,8.80
2023-05-25T02:50:43.005Z,8.50
2023-05-25T02:51:43.177Z,8.80
2023-05-25T02:52:43.368Z,8.00
2023-05-25T02:53:43.538Z,8.70
2023-05-25T02:54:43.735Z,8.00
2023-05-25T02:55:44.152Z,7.70
2023-05-25T02:56:44.041Z,8.50
2023-05-25T02:57:44.218Z,8.80
2023-05-25T02:58:44.382Z,7.70
2023-05-25T02:59:44.554Z,7.20
2023-05-25T03:00:44.741Z,9.10
2023-05-25T03:01:44.871Z,7.80
2023-05-25T03:02:45.076Z,8.00
2023-05-25T03:03:45.246Z,7.90
2023-05-25T03:04:45.385Z,8.10
2023-05-25T03:05:45.666Z,7.60
2023-05-25T03:06:45.761Z,7.00
2023-05-25T03:07:45.919Z,9.40
2023-05-25T03:08:46.079Z,8.30
2023-05-25T03:09:46.245Z,8.60
2023-05-25T03:10:46.416Z,9.00
2023-05-25T03:11:46.596Z,8.70
2023-05-25T03:12:46.770Z,8.90
2023-05-25T03:13:46.976Z,8.80
2023-05-25T03:14:47.147Z,9.50
2023-05-25T03:15:47.311Z,7.90
2023-05-25T03:16:47.542Z,8.90
2023-05-25T03:17:47.681Z,7.60
2023-05-25T03:18:47.813Z,7.10
2023-05-25T03:19:47.987Z,9.20
2023-05-25T03:20:48.141Z,9.70
2023-05-25T03:21:48.374Z,8.60
2023-05-25T03:22:48.558Z,7.70
2023-05-25T03:23:48.739Z,9.80
2023-05-25T03:24:48.926Z,8.80
2023-05-25T03:25:49.101Z,8.70
2023-05-25T03:26:49.288Z,7.30
2023-05-25T03:27:49.466Z,8.30
2023-05-25T03:28:49.661Z,9.50
2023-05-25T03:29:49.854Z,8.30
2023-05-25T03:30:49.996Z,8.50
2023-05-25T03:31:50.265Z,9.30
2023-05-25T03:32:50.357Z,8.60
2023-05-25T03:33:50.501Z,9.10
2023-05-25T03:34:50.676Z,8.40
2023-05-25T03:35:50.864Z,7.80
2023-05-25T03:36:51.033Z,8.30
2023-05-25T03:37:51.210Z,9.60
2023-05-25T03:38:51.377Z,9.10
2023-05-25T03:39:51.543Z,8.00
2023-05-25T03:40:51.733Z,8.00
2023-05-25T03:41:51.894Z,9.40
2023-05-25T03:42:52.052Z,8.50
2023-05-25T03:43:52.234Z,9.20
2023-05-25T03:44:52.443Z,9.90
2023-05-25T03:45:52.649Z,9.10
2023-05-25T03:46:52.797Z,9.50
2023-05-25T03:47:53.006Z,8.50
2023-05-25T03:48:53.127Z,9.20
2023-05-25T03:49:53.309Z,8.80
2023-05-25T03:50:53.510Z,9.60
2023-05-25T03:51:53.656Z,8.70
2023-05-25T03:52:53.830Z,8.30
2023-05-25T03:53:54.001Z,9.30
2023-05-25T03:54:54.201Z,7.50
2023-05-25T03:55:54.379Z,8.90
2023-05-25T03:56:54.538Z,10.00
2023-05-25T03:57:54.717Z,9.40
2023-05-25T03:58:54.873Z,10.50
2023-05-25T03:59:55.021Z,9.90
2023-05-25T04:00:55.219Z,9.70
2023-05-25T04:01:55.431Z,9.70
2023-05-25T04:02:55.641Z,9.30
2023-05-25T04:03:56.012Z,8.80
2023-05-25T04:04:56.011Z,9.90
2023-05-25T04:05:56.120Z,10.10
2023-05-25T04:06:56.283Z,9.30
2023-05-25T04:07:56.449Z,9.80
2023-05-25T04:08:56.632Z,11.10
2023-05-25T04:09:56.799Z,10.00
2023-05-25T04:10:56.984Z,10.10
2023-05-25T04:11:57.166Z,10.20
2023-05-25T04:12:57.339Z,11.20
2023-05-25T04:13:57.508Z,10.70
2023-05-25T04:14:57.678Z,10.20
2023-05-25T04:15:57.867Z,10.00
2023-05-25T04:16:58.029Z,9.60
2023-05-25T04:17:58.248Z,10.30
2023-05-25T04:18:58.378Z,11.10
2023-05-25T04:19:58.571Z,11.30
2023-05-25T04:20:58.711Z,9.80
2023-05-25T04:21:58.897Z,9.50
2023-05-25T04:22:59.050Z,9.00
2023-05-25T04:23:59.234Z,10.80
2023-05-25T04:24:59.412Z,10.50
2023-05-25T04:25:59.598Z,10.30
2023-05-25T04:26:59.794Z,9.80
2023-05-25T04:27:59.965Z,11.70
2023-05-25T04:29:00.136Z,9.90
2023-05-25T04:30:00.331Z,10.60
2023-05-25T04:31:00.504Z,10.30
2023-05-25T04:32:00.719Z,9.70
2023-05-25T04:33:00.820Z,10.50
2023-05-25T04:34:01.014Z,9.50
2023-05-25T04:35:01.180Z,11.50
2023-05-25T04:36:01.360Z,12.30
2023-05-25T04:37:01.537Z,11.20
2023-05-25T04:38:01.718Z,11.20
2023-05-25T04:39:01.889Z,10.50
2023-05-25T04:40:02.069Z,10.30
2023-05-25T04:41:02.308Z,11.40
2023-05-25T04:42:02.425Z,10.10
2023-05-25T04:43:02.593Z,10.40
2023-05-25T04:44:08.962Z,9.60
2023-05-25T04:45:03.956Z,12.40
2023-05-25T04:46:03.194Z,9.40
2023-05-25T04:47:03.347Z,11.80
2023-05-25T04:48:03.548Z,10.10
2023-05-25T04:49:03.680Z,11.60
2023-05-25T04:50:03.876Z,11.10
2023-05-25T04:51:04.046Z,11.10
2023-05-25T04:52:04.252Z,9.70
2023-05-25T04:53:04.388Z,10.20
2023-05-25T04:54:04.591Z,9.80
2023-05-25T04:55:04.720Z,11.20
2023-05-25T04:56:04.905Z,9.80
2023-05-25T04:57:05.090Z,10.20
2023-05-25T04:58:05.244Z,9.40
2023-05-25T04:59:05.392Z,10.90
2023-05-25T05:00:05.578Z,10.50
2023-05-25T05:01:05.781Z,10.30
2023-05-25T05:02:05.964Z,9.60
2023-05-25T05:03:06.151Z,11.70
2023-05-25T05:04:06.324Z,12.60
2023-05-25T05:05:06.436Z,11.40
2023-05-25T05:06:06.621Z,12.50
2023-05-25T05:07:06.813Z,11.20
2023-05-25T05:08:06.979Z,13.20
2023-05-25T05:09:07.146Z,10.30
2023-05-25T05:10:07.329Z,9.50
2023-05-25T05:11:07.488Z,12.20
2023-05-25T05:12:08.913Z,11.50
2023-05-25T05:13:07.847Z,11.30
2023-05-25T05:14:08.007Z,11.00
2023-05-25T05:15:08.183Z,13.90
2023-05-25T05:16:08.389Z,13.70
2023-05-25T05:17:08.549Z,11.70
2023-05-25T05:18:08.789Z,11.50
2023-05-25T05:19:08.896Z,11.10
2023-05-25T05:20:09.182Z,10.40
2023-05-25T05:21:09.264Z,12.40
2023-05-25T05:22:09.464Z,12.60
2023-05-25T05:23:09.639Z,12.10
2023-05-25T05:24:09.814Z,11.60
2023-05-25T05:25:09.996Z,12.80
2023-05-25T05:26:10.163Z,10.70
2023-05-25T05:27:10.345Z,14.70
2023-05-25T05:28:10.526Z,11.60
2023-05-25T05:29:10.718Z,11.60
2023-05-25T05:30:10.901Z,13.80
2023-05-25T05:31:11.115Z,10.50
2023-05-25T05:32:11.253Z,11.00
2023-05-25T05:33:11.495Z,12.30
2023-05-25T05:34:11.626Z,11.80
2023-05-25T05:35:11.784Z,11.60
2023-05-25T05:36:11.940Z,11.40
2023-05-25T05:37:12.115Z,10.50
2023-05-25T05:38:12.282Z,14.10
2023-05-25T05:39:12.478Z,11.80
2023-05-25T05:40:12.668Z,11.90
2023-05-25T05:41:12.823Z,10.30
2023-05-25T05:42:13.009Z,11.90
2023-05-25T05:43:13.169Z,13.70
2023-05-25T05:44:13.376Z,10.60
2023-05-25T05:45:13.557Z,13.60
2023-05-25T05:46:13.747Z,11.10
2023-05-25T05:47:13.920Z,13.70
2023-05-25T05:48:14.079Z,11.40
2023-05-25T05:49:14.271Z,11.90
2023-05-25T05:50:14.476Z,13.50
2023-05-25T05:51:14.609Z,13.80
2023-05-25T05:52:14.799Z,14.90
2023-05-25T05:53:14.976Z,11.40
2023-05-25T05:54:15.171Z,11.00
2023-05-25T05:55:15.348Z,10.70
2023-05-25T05:56:15.508Z,13.50
2023-05-25T05:57:15.694Z,10.90
2023-05-25T05:58:15.877Z,12.10
2023-05-25T05:59:16.035Z,13.00
2023-05-25T06:00:16.266Z,13.30
2023-05-25T06:01:16.399Z,13.80
2023-05-25T06:02:16.642Z,13.40
2023-05-25T06:03:16.794Z,12.70
2023-05-25T06:04:16.943Z,13.50
2023-05-25T06:05:17.176Z,13.00
2023-05-25T06:06:17.428Z,13.20
2023-05-25T06:07:17.478Z,12.80
2023-05-25T06:08:17.652Z,11.50
2023-05-25T06:09:17.816Z,11.90
2023-05-25T06:10:18.032Z,11.70
2023-05-25T06:11:18.169Z,12.30
2023-05-25T06:12:18.392Z,11.40
2023-05-25T06:13:18.508Z,11.00
2023-05-25T06:14:18.683Z,13.20
2023-05-25T06:15:18.885Z,11.60
2023-05-25T06:16:19.058Z,12.90
2023-05-25T06:17:19.223Z,11.10
2023-05-25T06:18:19.395Z,11.30
2023-05-25T06:19:19.579Z,11.00
2023-05-25T06:20:19.808Z,11.60
2023-05-25T06:21:19.920Z,13.60
2023-05-25T06:22:20.112Z,11.80
2023-05-25T06:23:20.287Z,12.60
2023-05-25T06:24:20.461Z,12.60
2023-05-25T06:25:20.636Z,12.20
2023-05-25T06:26:20.808Z,10.50
2023-05-25T06:27:20.986Z,10.70
2023-05-25T06:28:21.168Z,14.80
2023-05-25T06:29:21.370Z,12.20
2023-05-25T06:30:21.532Z,12.00
2023-05-25T06:31:21.746Z,11.00
2023-05-25T06:32:21.949Z,13.00
2023-05-25T06:33:22.026Z,12.50
2023-05-25T06:34:22.210Z,12.90
2023-05-25T06:35:22.386Z,12.40
2023-05-25T06:36:22.562Z,10.90
2023-05-25T06:37:22.773Z,11.60
2023-05-25T06:38:23.111Z,12.30
2023-05-25T06:39:23.091Z,12.50
2023-05-25T06:40:23.240Z,10.90
2023-05-25T06:41:23.442Z,12.20
2023-05-25T06:42:23.607Z,11.90
2023-05-25T06:43:23.798Z,13.20
2023-05-25T06:44:23.982Z,11.20
2023-05-25T06:45:24.168Z,13.60
2023-05-25T06:46:24.327Z,11.70
2023-05-25T06:47:24.533Z,13.20
2023-05-25T06:48:24.682Z,13.20
2023-05-25T06:49:24.871Z,11.00
2023-05-25T06:50:25.037Z,12.60
2023-05-25T06:51:25.216Z,13.50
2023-05-25T06:52:25.389Z,12.20
2023-05-25T06:53:25.581Z,13.10
2023-05-25T06:54:25.768Z,12.50
2023-05-25T06:55:25.955Z,11.20
2023-05-25T06:56:26.118Z,12.60
2023-05-25T06:57:26.296Z,10.30
2023-05-25T06:58:26.452Z,12.90
2023-05-25T06:59:26.636Z,12.30
2023-05-25T07:00:27.053Z,11.90
2023-05-25T07:01:27.053Z,10.20
2023-05-25T07:02:27.179Z,12.70
2023-05-25T07:03:27.330Z,14.20
2023-05-25T07:04:27.555Z,15.10
2023-05-25T07:05:27.721Z,11.90
2023-05-25T07:06:27.874Z,12.50
2023-05-25T07:07:28.009Z,13.80
2023-05-25T07:08:28.179Z,15.50
2023-05-25T07:09:28.344Z,13.00
2023-05-25T07:10:28.563Z,11.50
2023-05-25T07:11:28.738Z,12.10
2023-05-25T07:12:28.918Z,10.90
2023-05-25T07:13:29.078Z,13.40
2023-05-25T07:14:29.250Z,14.70
2023-05-25T07:15:29.465Z,13.60
2023-05-25T07:16:29.707Z,11.00
2023-05-25T07:17:29.814Z,11.70
2023-05-25T07:18:29.989Z,13.90
2023-05-25T07:19:30.159Z,12.10
2023-05-25T07:20:30.420Z,12.50
2023-05-25T07:21:30.520Z,12.70
2023-05-25T07:22:30.691Z,13.00
2023-05-25T07:23:30.844Z,10.50
2023-05-25T07:24:31.017Z,11.70
2023-05-25T07:25:31.178Z,10.80
2023-05-25T07:26:31.459Z,12.60
2023-05-25T07:27:31.584Z,11.10
2023-05-25T07:28:31.734Z,10.40
2023-05-25T07:29:31.907Z,10.70
2023-05-25T07:30:32.096Z,10.80
2023-05-25T07:31:32.300Z,13.70
2023-05-25T07:32:32.474Z,10.40
2023-05-25T07:33:32.605Z,14.60
2023-05-25T07:34:32.801Z,12.50
2023-05-25T07:35:33.009Z,11.60
2023-05-25T07:36:33.154Z,11.50
2023-05-25T07:37:33.351Z,12.70
2023-05-25T07:38:33.531Z,10.10
2023-05-25T07:39:33.698Z,13.10
2023-05-25T07:40:33.860Z,11.20
2023-05-25T07:41:34.058Z,11.80
2023-05-25T07:42:34.250Z,13.00
2023-05-25T07:43:34.411Z,11.50
2023-05-25T07:44:34.593Z,11.60
2023-05-25T07:45:34.789Z,11.40
2023-05-25T07:46:34.972Z,12.60
2023-05-25T07:47:35.178Z,11.20
2023-05-25T07:48:35.307Z,11.40
2023-05-25T07:49:35.488Z,11.50
2023-05-25T07:50:35.674Z,11.10
2023-05-25T07:51:35.860Z,10.30
2023-05-25T07:52:36.047Z,11.20
2023-05-25T07:53:36.206Z,11.90
2023-05-25T07:54:36.393Z,12.30
2023-05-25T07:55:36.556Z,9.30
2023-05-25T07:56:36.734Z,10.40
2023-05-25T07:57:36.919Z,11.70
2023-05-25T07:58:37.082Z,12.30
2023-05-25T07:59:37.268Z,10.60
2023-05-25T08:00:37.432Z,12.00
2023-05-25T08:01:37.637Z,11.00
2023-05-25T08:02:37.973Z,13.80
2023-05-25T08:03:48.860Z,10.90
2023-05-25T08:04:39.235Z,10.90
2023-05-25T08:05:38.356Z,12.10
2023-05-25T08:06:38.562Z,11.30
2023-05-25T08:07:40.058Z,11.10
2023-05-25T08:08:38.874Z,13.20
2023-05-25T08:09:39.083Z,11.00
2023-05-25T08:10:39.237Z,12.80
2023-05-25T08:11:39.414Z,11.40
2023-05-25T08:12:48.840Z,11.30
2023-05-25T08:13:40.770Z,11.20
2023-05-25T08:14:39.967Z,11.30
2023-05-25T08:15:40.129Z,11.40
2023-05-25T08:16:40.325Z,12.30
2023-05-25T08:17:40.542Z,11.80
2023-05-25T08:18:40.659Z,11.60
2023-05-25T08:19:40.847Z,14.40
2023-05-25T08:20:41.047Z,13.60
2023-05-25T08:21:41.206Z,10.30
2023-05-25T08:22:41.426Z,9.90
2023-05-25T08:23:41.532Z,12.50
2023-05-25T08:24:41.701Z,11.30
2023-05-25T08:25:41.928Z,10.20
2023-05-25T08:26:53.761Z,9.20
2023-05-25T08:27:43.260Z,11.20
2023-05-25T08:28:42.405Z,11.60
2023-05-25T08:29:42.589Z,11.50
2023-05-25T08:30:42.770Z,11.30
2023-05-25T08:31:42.959Z,11.40
2023-05-25T08:32:43.142Z,12.40
2023-05-25T08:33:43.302Z,11.20
2023-05-25T08:34:43.480Z,11.40
2023-05-25T08:35:43.850Z,11.10
2023-05-25T08:36:43.833Z,11.30
2023-05-25T08:37:44.043Z,11.00
2023-05-25T08:38:44.178Z,9.10
2023-05-25T08:39:44.375Z,10.70
2023-05-25T08:40:44.553Z,11.40
2023-05-25T08:41:44.707Z,11.00
2023-05-25T08:42:44.905Z,11.80
2023-05-25T08:43:45.069Z,11.60
2023-05-25T08:44:45.300Z,11.20
2023-05-25T08:45:47.241Z,10.10
2023-05-25T08:46:45.627Z,10.70
2023-05-25T08:47:45.838Z,10.80
2023-05-25T08:48:46.106Z,10.60
2023-05-25T08:49:46.198Z,10.00
2023-05-25T08:50:46.351Z,9.10
2023-05-25T08:51:46.508Z,11.20
2023-05-25T08:52:46.719Z,9.80
2023-05-25T08:53:46.901Z,12.70
2023-05-25T08:54:47.052Z,10.60
2023-05-25T08:55:47.408Z,11.60
2023-05-25T08:56:47.424Z,11.80
2023-05-25T08:57:47.639Z,10.70
2023-05-25T08:58:47.767Z,12.10
2023-05-25T08:59:47.952Z,8.70
2023-05-25T09:00:48.113Z,10.10
2023-05-25T09:01:48.324Z,9.00
2023-05-25T09:02:48.510Z,10.20
2023-05-25T09:03:48.702Z,9.30
2023-05-25T09:04:48.806Z,7.70
2023-05-25T09:05:48.984Z,10.20
2023-05-25T09:07:05.888Z,9.00
2023-05-25T09:07:50.365Z,10.70
2023-05-25T09:08:49.579Z,8.70
2023-05-25T09:09:49.729Z,9.20
2023-05-25T09:10:49.879Z,9.10
2023-05-25T09:11:50.063Z,8.60
2023-05-25T09:12:50.248Z,10.70
2023-05-25T09:13:50.407Z,10.20
2023-05-25T09:14:50.586Z,11.00
2023-05-25T09:15:50.839Z,10.20
2023-05-25T09:16:51.058Z,11.30
2023-05-25T09:17:51.155Z,11.60
2023-05-25T09:18:51.290Z,11.50
2023-05-25T09:19:51.523Z,11.00
2023-05-25T09:20:52.166Z,11.20
2023-05-25T09:21:59.604Z,11.50
2023-05-25T09:22:52.988Z,11.00
2023-05-25T09:23:52.145Z,12.50
2023-05-25T09:24:52.303Z,12.30
2023-05-25T09:25:52.506Z,11.10
2023-05-25T09:26:52.679Z,9.70
2023-05-25T09:27:52.845Z,11.20
2023-05-25T09:28:53.018Z,11.70
2023-05-25T09:29:53.207Z,11.30
2023-05-25T09:30:53.389Z,11.90
2023-05-25T09:31:53.634Z,12.70
2023-05-25T09:32:53.801Z,10.20
2023-05-25T09:33:53.942Z,11.50
2023-05-25T09:34:54.114Z,9.40
2023-05-25T09:35:54.290Z,10.50
2023-05-25T09:36:54.562Z,11.10
2023-05-25T09:37:54.783Z,10.20
2023-05-25T09:38:55.106Z,9.50
2023-05-25T09:39:54.993Z,9.90
2023-05-25T09:40:55.190Z,9.80
2023-05-25T09:41:55.359Z,10.90
2023-05-25T09:42:55.543Z,11.10
2023-05-25T09:44:06.600Z,10.50
2023-05-25T09:44:56.903Z,9.10
2023-05-25T09:45:56.125Z,11.10
2023-05-25T09:46:56.205Z,11.00
2023-05-25T09:47:56.485Z,10.10
2023-05-25T09:48:56.573Z,10.90
2023-05-25T09:49:56.753Z,9.10
2023-05-25T09:50:56.910Z,10.90
2023-05-25T09:51:57.117Z,9.80
2023-05-25T09:52:57.287Z,9.30
2023-05-25T09:53:57.460Z,10.80
2023-05-25T09:54:57.628Z,9.80
2023-05-25T09:55:57.813Z,11.40
2023-05-25T09:56:57.968Z,10.70
2023-05-25T09:57:58.111Z,10.40
2023-05-25T09:58:58.273Z,12.20
2023-05-25T09:59:58.449Z,11.70
2023-05-25T10:00:58.653Z,12.60
2023-05-25T10:01:58.834Z,9.00
2023-05-25T10:02:58.988Z,8.30
2023-05-25T10:04:04.105Z,9.80
2023-05-25T10:05:00.327Z,11.50
2023-05-25T10:05:59.464Z,10.70
2023-05-25T10:06:59.630Z,8.90
2023-05-25T10:07:59.842Z,9.70
2023-05-25T10:09:00.000Z,10.70
2023-05-25T10:10:00.211Z,8.90
2023-05-25T10:11:00.363Z,9.00
2023-05-25T10:12:00.530Z,10.50
2023-05-25T10:13:00.711Z,8.90
2023-05-25T10:14:00.855Z,9.00
2023-05-25T10:15:01.053Z,10.10
2023-05-25T10:16:01.235Z,10.10
2023-05-25T10:17:01.401Z,8.40
2023-05-25T10:18:01.596Z,9.90
2023-05-25T10:19:01.712Z,9.60
2023-05-25T10:20:01.993Z,9.70
2023-05-25T10:21:02.737Z,10.30
2023-05-25T10:22:02.334Z,9.60
2023-05-25T10:23:02.423Z,8.80
2023-05-25T10:24:02.550Z,9.20
2023-05-25T10:25:02.712Z,9.70
2023-05-25T10:26:02.930Z,8.30
2023-05-25T10:27:08.069Z,10.30
2023-05-25T10:28:04.222Z,8.80
2023-05-25T10:29:03.390Z,8.50
2023-05-25T10:30:03.576Z,8.90
2023-05-25T10:31:03.857Z,9.70
2023-05-25T10:32:04.020Z,8.00
2023-05-25T10:33:04.176Z,10.80
2023-05-25T10:34:04.305Z,8.90
2023-05-25T10:35:04.504Z,8.80
2023-05-25T10:36:10.589Z,9.20
2023-05-25T10:37:05.827Z,9.10
2023-05-25T10:38:04.994Z,8.80
2023-05-25T10:39:05.194Z,9.20
2023-05-25T10:40:05.346Z,7.10
2023-05-25T10:41:05.561Z,8.40
2023-05-25T10:42:05.692Z,9.20
2023-05-25T10:43:05.871Z,9.20
2023-05-25T10:44:06.050Z,8.90
2023-05-25T10:45:06.241Z,8.40
2023-05-25T10:46:06.434Z,7.60
2023-05-25T10:47:06.704Z,8.80
2023-05-25T10:48:06.881Z,8.00
2023-05-25T10:49:06.961Z,8.50
2023-05-25T10:50:07.171Z,7.70
2023-05-25T10:51:09.320Z,7.40
2023-05-25T10:52:07.475Z,8.10
2023-05-25T10:53:07.661Z,7.80
2023-05-25T10:54:07.855Z,8.20
2023-05-25T10:55:08.024Z,8.20
2023-05-25T10:56:08.186Z,9.60
2023-05-25T10:57:08.392Z,8.40
2023-05-25T10:58:08.577Z,9.00
2023-05-25T10:59:08.785Z,7.80
2023-05-25T11:00:08.981Z,7.30
2023-05-25T11:01:09.164Z,8.00
2023-05-25T11:02:09.774Z,8.30
2023-05-25T11:03:09.446Z,8.30
2023-05-25T11:04:09.694Z,7.50
2023-05-25T11:05:09.740Z,8.40
2023-05-25T11:06:09.988Z,7.70
2023-05-25T11:07:10.121Z,7.90
2023-05-25T11:08:10.288Z,6.80
2023-05-25T11:09:10.478Z,7.80
2023-05-25T11:10:10.643Z,7.50
2023-05-25T11:11:10.819Z,7.50
2023-05-25T11:12:10.989Z,6.50
2023-05-25T11:13:11.174Z,8.70
2023-05-25T11:14:11.356Z,6.90
2023-05-25T11:15:11.524Z,8.10
2023-05-25T11:16:11.708Z,6.60
2023-05-25T11:17:12.195Z,7.60
2023-05-25T11:18:12.086Z,8.40
2023-05-25T11:19:12.192Z,6.80
2023-05-25T11:20:12.449Z,6.40
2023-05-25T11:21:12.612Z,7.10
2023-05-25T11:22:12.745Z,6.70
2023-05-25T11:23:12.907Z,7.00
2023-05-25T11:24:13.045Z,8.30
2023-05-25T11:25:13.232Z,7.20
2023-05-25T11:26:13.422Z,7.80
2023-05-25T11:27:13.600Z,7.10
2023-05-25T11:28:13.778Z,7.30
2023-05-25T11:29:13.948Z,7.40
2023-05-25T11:30:14.149Z,7.50
2023-05-25T11:31:14.406Z,7.70
2023-05-25T11:32:14.491Z,7.20
2023-05-25T11:33:14.675Z,7.30
2023-05-25T11:34:14.817Z,7.20
2023-05-25T11:35:14.983Z,6.40
2023-05-25T11:36:15.111Z,6.00
2023-05-25T11:37:15.311Z,7.90
2023-05-25T11:38:15.491Z,7.20
2023-05-25T11:39:22.497Z,7.00
2023-05-25T11:40:16.883Z,7.60
2023-05-25T11:41:16.023Z,8.40
2023-05-25T11:42:16.201Z,7.50
2023-05-25T11:43:16.379Z,6.10
2023-05-25T11:44:16.568Z,7.40
2023-05-25T11:45:16.763Z,8.70
2023-05-25T11:46:16.951Z,7.40
2023-05-25T11:47:17.059Z,6.50
2023-05-25T11:48:17.301Z,6.70
2023-05-25T11:49:17.416Z,6.00
2023-05-25T11:50:17.600Z,6.90
2023-05-25T11:51:17.741Z,6.80
2023-05-25T11:52:17.891Z,6.50
2023-05-25T11:53:18.074Z,7.30
2023-05-25T11:54:18.239Z,6.50
2023-05-25T11:55:18.421Z,7.80
2023-05-25T11:56:30.767Z,6.90
2023-05-25T11:57:19.804Z,7.40
2023-05-25T11:58:18.964Z,7.70
2023-05-25T11:59:19.152Z,8.00
2023-05-25T12:00:19.324Z,7.10
2023-05-25T12:01:19.493Z,7.10
2023-05-25T12:02:19.692Z,7.60
2023-05-25T12:03:19.933Z,7.90
2023-05-25T12:04:22.409Z,6.60
2023-05-25T12:05:20.294Z,8.50
2023-05-25T12:06:20.380Z,7.30
2023-05-25T12:07:20.556Z,7.50
2023-05-25T12:08:20.725Z,7.60
2023-05-25T12:09:20.901Z,7.40
2023-05-25T12:10:21.052Z,8.70
2023-05-25T12:11:21.197Z,6.30
2023-05-25T12:12:21.395Z,6.90
2023-05-25T12:13:21.536Z,6.60
2023-05-25T12:14:21.699Z,9.00
2023-05-25T12:15:22.114Z,7.10
2023-05-25T12:16:22.063Z,9.40
2023-05-25T12:17:22.356Z,8.90
2023-05-25T12:18:22.394Z,7.40
2023-05-25T12:19:22.577Z,8.20
2023-05-25T12:20:22.794Z,7.80
2023-05-25T12:21:22.958Z,5.60
2023-05-25T12:22:23.079Z,7.80
2023-05-25T12:23:23.253Z,7.40
2023-05-25T12:24:23.394Z,6.60
2023-05-25T12:25:23.866Z,7.90
2023-05-25T12:26:23.773Z,6.40
2023-05-25T12:27:23.938Z,7.30
2023-05-25T12:28:24.131Z,7.60
2023-05-25T12:29:24.319Z,5.70
2023-05-25T12:30:24.502Z,6.80
2023-05-25T12:31:24.778Z,6.80
2023-05-25T12:32:24.892Z,5.80
2023-05-25T12:33:25.014Z,8.20
2023-05-25T12:34:25.187Z,8.30
2023-05-25T12:35:25.326Z,7.10
2023-05-25T12:36:25.552Z,7.90
2023-05-25T12:37:25.682Z,8.20
2023-05-25T12:38:25.852Z,7.70
2023-05-25T12:39:26.053Z,8.40
2023-05-25T12:40:26.219Z,6.80
2023-05-25T12:41:26.388Z,7.00
2023-05-25T12:42:26.560Z,7.40
2023-05-25T12:43:26.731Z,7.50
2023-05-25T12:44:26.911Z,6.50
2023-05-25T12:45:27.068Z,7.70
2023-05-25T12:46:27.310Z,7.10
2023-05-25T12:47:27.455Z,6.90
2023-05-25T12:48:27.576Z,7.60
2023-05-25T12:49:27.761Z,7.70
2023-05-25T12:50:29.399Z,6.90
2023-05-25T12:51:28.115Z,7.60
2023-05-25T12:52:28.285Z,8.60
2023-05-25T12:53:28.437Z,7.50
2023-05-25T12:54:28.594Z,7.80
2023-05-25T12:55:28.766Z,8.00
2023-05-25T12:56:28.902Z,6.50
2023-05-25T12:57:29.071Z,7.50
2023-05-25T12:58:29.297Z,7.80
2023-05-25T12:59:29.444Z,7.90
2023-05-25T13:00:29.635Z,7.90
2023-05-25T13:01:29.891Z,7.40
2023-05-25T13:02:30.041Z,6.20
2023-05-25T13:03:30.310Z,7.90
2023-05-25T13:04:30.353Z,7.80
2023-05-25T13:05:30.595Z,7.90
2023-05-25T13:06:30.695Z,8.50
2023-05-25T13:07:30.846Z,8.50
2023-05-25T13:08:31.044Z,7.30
2023-05-25T13:09:31.245Z,7.50